Thibodaux, Louisiana
Current Conditions -  °F | °C
As of 1:50 PM on Tuesday 21 Oct 2014 (Local Time) from KHUM Reporting Station
Clear Clear  
Wind Chill: 81°   Ceiling: Unl
Heat Index: 81°   Visibility: 7mi
Dew Point: 54°   Wind: 12mph
Humidity: 39%   Direction: 20°NNE
Pressure: 30"   Gusts: NA
Location:  29.8°N, 90.82°W
Report Text: KHUM 211850Z 02010KT 7SM SKC 27/12 A3000 RMK ATIS R VA RY36 ST
Loading
Personal Weather Stations






























Interactive Weather Map
Tropical Storm Tracking
New forecast layout! Learn more

10-Day Weather Forecast

Advertisements
Track Severe Weather on mobile